Meteo Giornale » Osservazioni meteo Italia » Treviso-S Angelo

ore: 16:20 - Osservazioni Meteo Treviso-S Angelo
Lat. 45° 39' N Lon. 12° 11' E Alt. 18 metri s.l.m.

sereno Europe/Rome

24 °C

Sereno

Temp. 24 Ore

6 °C

24 °C

Sud/Sud-Ovest

13 Km/h

Dew point 5 °C

Umidità 29 %

Visibilità  10 Km

Il sole sorge alle ore 06:04

Il sole tramonta alle ore 18:30

Data e Ora Cielo e Fenomeni T °C DP °C Um. % Pres. hPa Vis. km Vento km/h
Oggi h: 16:20 sereno Sereno 24 5 29 1017 10 S/SO 13
Oggi h: 15:50 sereno Sereno 24 5 29 1017 10 S 13
Oggi h: 15:20 sereno Sereno 24 4 27 1018 10 S/SO 11.1
Oggi h: 14:50 sereno Sereno 24 4 27 1018 10 S 9.3
Oggi h: 14:20 sereno Sereno 24 5 29 1018 10 SO 9.3
Oggi h: 13:50 sereno Sereno 23 4 28 1019 10 S/SO 9.3
Oggi h: 13:20 sereno Sereno 23 4 28 1020 10 S 7.4
Oggi h: 12:50 sereno Sereno 22 4 30 1020 10 S 9.3
Oggi h: 12:20 sereno Sereno 23 5 31 1020 10 N 5.5
Oggi h: 11:50 sereno Sereno 22 4 30 1021 10 N 5.5
Oggi h: 11:20 sereno Sereno 22 5 32 1021 10 N 3.7
Oggi h: 10:50 sereno Sereno 21 5 35 1021 10 N 3.7
Oggi h: 10:20 sereno Sereno 20 4 34 1022 10 N 3.7
Oggi h: 09:50 sereno Sereno 19 5 39 1022 10 N 3.7
Oggi h: 09:20 sereno Sereno 19 6 42 1022 10 N 1.8
Oggi h: 08:50 sereno Sereno 16 7 55 1022 10 N 1.8
Oggi h: 08:20 sereno Sereno 14 5 54 1022 10 N 3.7
Oggi h: 07:50 sereno Sereno 11 6 71 1022 10 N 3.7
Oggi h: 07:20 sereno Sereno 10 4 66 1022 10 N 1.8
Oggi h: 06:50 sereno Sereno 7 4 81 1022 10 N 1.8
Oggi h: 06:20 sereno Sereno 7 4 81 1022 10 N 3.7
Oggi h: 05:50 sereno Sereno 6 4 86 1022 10 N 3.7
Oggi h: 05:20 sereno Sereno 7 4 81 1022 10 N 3.7
Oggi h: 04:50 sereno Sereno 6 4 86 1022 10 N 1.8
Oggi h: 04:20 sereno Sereno 7 4 81 1023 10 N 1.8
Oggi h: 03:50 sereno Sereno 7 4 81 1023 10 N 5.5
Oggi h: 03:20 sereno Sereno 8 5 81 1023 10 N 3.7
Oggi h: 02:50 sereno Sereno 9 5 75 1023 10 N 3.7
Oggi h: 02:20 sereno Sereno 8 5 81 1023 10 N 3.7
Oggi h: 01:50 sereno Sereno 10 4 66 1023 10 N 5.5
Oggi h: 01:20 sereno Sereno 11 4 61 1023 10 N/NE 7.4
Oggi h: 00:50 sereno Sereno 8 4 75 1023 10 N 3.7
Oggi h: 00:20 sereno Sereno 10 5 71 1023 10 N 5.5
Ieri h: 23:50 sereno Sereno 10 4 66 1023 10 N 1.8
Ieri h: 23:20 sereno Sereno 10 5 71 1023 10 N 1.8
Ieri h: 22:50 sereno Sereno 10 7 81 1023 10 N 1.8
Ieri h: 22:20 sereno Sereno 12 5 62 1023 10 N 3.7
Ieri h: 21:50 sereno Sereno 14 4 50 1023 10 N 5.5
Ieri h: 21:20 sereno Sereno 13 5 58 1023 10 N 1.8
Ieri h: 20:50 sereno Sereno 13 5 58 1023 10 N 3.7
Ieri h: 20:20 sereno Sereno 15 4 47 1023 10 N 3.7
Ieri h: 19:50 sereno Sereno 16 4 44 1023 10 N 3.7
Ieri h: 19:20 sereno Sereno 17 4 41 1023 10 N 5.5
Ieri h: 18:50 sereno Sereno 18 4 39 1022 10 N 3.7
Ieri h: 18:20 sereno Sereno 20 4 34 1022 10 N 5.5
Ieri h: 17:50 sereno Sereno 21 4 32 1022 10 S/SO 9.3
Ieri h: 17:20 sereno Sereno 21 4 32 1022 10 S 11.1
Ieri h: 16:50 sereno Sereno 22 5 32 1022 10 S/SO 9.3